createdAt,value
2023-05-01T00:01:56.920Z,2.50
2023-05-01T00:04:25.144Z,2.58
2023-05-01T00:06:53.408Z,2.70
2023-05-01T00:09:21.430Z,2.30
2023-05-01T00:11:49.585Z,2.63
2023-05-01T00:14:25.273Z,2.60
2023-05-01T00:16:53.319Z,2.50
2023-05-01T00:19:21.395Z,2.58
2023-05-01T00:21:51.627Z,2.38
2023-05-01T00:24:20.224Z,2.53
2023-05-01T00:26:49.335Z,2.55
2023-05-01T00:29:18.332Z,2.65
2023-05-01T00:31:58.269Z,2.53
2023-05-01T00:34:28.886Z,2.30
2023-05-01T00:36:59.078Z,2.67
2023-05-01T00:39:34.459Z,2.40
2023-05-01T00:42:02.485Z,2.72
2023-05-01T00:44:38.320Z,3.22
2023-05-01T00:47:07.723Z,2.63
2023-05-01T00:49:35.960Z,2.83
2023-05-01T00:52:04.022Z,2.78
2023-05-01T00:54:32.161Z,2.70
2023-05-01T00:57:00.521Z,2.92
2023-05-01T00:59:29.114Z,2.25
2023-05-01T01:01:59.468Z,2.80
2023-05-01T01:04:31.719Z,3.03
2023-05-01T01:07:11.557Z,2.95
2023-05-01T01:09:55.907Z,3.00
2023-05-01T01:12:28.392Z,3.05
2023-05-01T01:15:05.579Z,3.60
2023-05-01T01:17:39.741Z,3.10
2023-05-01T01:20:42.098Z,3.28
2023-05-01T01:23:30.486Z,3.53
2023-05-01T01:26:25.913Z,3.95
2023-05-01T01:29:31.531Z,3.00
2023-05-01T01:32:10.435Z,3.45
2023-05-01T01:34:48.333Z,3.78
2023-05-01T01:37:25.918Z,3.67
2023-05-01T01:40:01.244Z,3.90
2023-05-01T01:42:39.003Z,3.17
2023-05-01T01:45:13.951Z,2.92
2023-05-01T01:47:43.670Z,3.03
2023-05-01T01:50:19.795Z,3.72
2023-05-01T01:52:50.556Z,3.22
2023-05-01T01:55:28.345Z,3.20
2023-05-01T01:57:58.387Z,3.78
2023-05-01T02:00:27.119Z,3.72
2023-05-01T02:02:56.382Z,3.28
2023-05-01T02:05:28.141Z,3.47
2023-05-01T02:07:57.717Z,3.47
2023-05-01T02:10:28.182Z,3.67
2023-05-01T02:13:02.002Z,3.25
2023-05-01T02:15:31.227Z,3.53
2023-05-01T02:18:00.557Z,3.57
2023-05-01T02:20:30.982Z,3.60
2023-05-01T02:23:00.344Z,3.37
2023-05-01T02:25:31.710Z,3.83
2023-05-01T02:28:03.750Z,3.73
2023-05-01T02:30:33.903Z,3.58
2023-05-01T02:33:02.118Z,4.03
2023-05-01T02:35:33.952Z,3.60
2023-05-01T02:38:04.718Z,3.97
2023-05-01T02:40:33.283Z,3.65
2023-05-01T02:43:04.353Z,3.10
2023-05-01T02:45:32.834Z,3.50
2023-05-01T02:48:24.834Z,3.90
2023-05-01T02:50:55.616Z,3.90
2023-05-01T02:53:23.944Z,4.28
2023-05-01T02:55:52.385Z,3.90
2023-05-01T02:58:21.772Z,3.72
2023-05-01T03:00:50.890Z,3.90
2023-05-01T03:03:19.082Z,4.20
2023-05-01T03:05:47.591Z,4.47
2023-05-01T03:08:17.489Z,4.13
2023-05-01T03:10:45.501Z,3.88
2023-05-01T03:13:13.520Z,3.70
2023-05-01T03:15:42.433Z,3.90
2023-05-01T03:18:10.651Z,3.92
2023-05-01T03:20:38.761Z,4.17
2023-05-01T03:23:07.800Z,4.67
2023-05-01T03:25:38.419Z,4.18
2023-05-01T03:28:06.681Z,4.33
2023-05-01T03:30:45.144Z,4.53
2023-05-01T03:33:13.193Z,4.07
2023-05-01T03:35:41.325Z,3.80
2023-05-01T03:38:09.783Z,3.90
2023-05-01T03:40:39.194Z,4.45
2023-05-01T03:43:07.272Z,4.20
2023-05-01T03:45:38.822Z,4.23
2023-05-01T03:48:07.386Z,4.00
2023-05-01T03:50:35.426Z,3.90
2023-05-01T03:53:03.616Z,4.40
2023-05-01T03:55:34.811Z,3.80
2023-05-01T03:58:04.303Z,3.88
2023-05-01T04:00:33.714Z,4.07
2023-05-01T04:03:08.937Z,3.77
2023-05-01T04:05:37.288Z,4.15
2023-05-01T04:08:05.705Z,4.40
2023-05-01T04:10:33.898Z,4.70
2023-05-01T04:13:03.433Z,4.43
2023-05-01T04:15:39.790Z,4.10
2023-05-01T04:18:08.188Z,4.47
2023-05-01T04:21:00.716Z,3.88
2023-05-01T04:23:28.680Z,4.27
2023-05-01T04:25:56.682Z,4.70
2023-05-01T04:28:31.119Z,4.27
2023-05-01T04:30:59.200Z,4.23
2023-05-01T04:33:28.340Z,4.47
2023-05-01T04:35:56.783Z,4.37
2023-05-01T04:38:24.847Z,4.30
2023-05-01T04:41:08.058Z,3.77
2023-05-01T04:43:37.548Z,4.22
2023-05-01T04:46:05.820Z,4.20
2023-05-01T04:48:36.368Z,4.43
2023-05-01T04:51:04.659Z,3.85
2023-05-01T04:53:37.479Z,4.77
2023-05-01T04:56:06.166Z,4.63
2023-05-01T04:58:34.144Z,4.20
2023-05-01T05:01:03.587Z,4.40
2023-05-01T05:03:31.768Z,4.70
2023-05-01T05:06:00.065Z,4.63
2023-05-01T05:08:39.301Z,4.13
2023-05-01T05:11:07.401Z,4.93
2023-05-01T05:13:49.915Z,4.03
2023-05-01T05:16:19.265Z,4.23
2023-05-01T05:18:47.528Z,4.50
2023-05-01T05:21:21.421Z,4.57
2023-05-01T05:23:49.405Z,4.00
2023-05-01T05:26:18.086Z,4.43
2023-05-01T05:28:46.237Z,4.20
2023-05-01T05:31:14.422Z,5.20
2023-05-01T05:33:44.682Z,4.40
2023-05-01T05:36:17.907Z,4.20
2023-05-01T05:38:46.022Z,4.63
2023-05-01T05:41:13.972Z,4.43
2023-05-01T05:43:45.463Z,4.43
2023-05-01T05:46:13.616Z,3.93
2023-05-01T05:48:43.096Z,4.30
2023-05-01T05:51:17.120Z,4.40
2023-05-01T05:53:45.298Z,4.53
2023-05-01T05:56:14.402Z,4.50
2023-05-01T05:58:42.344Z,4.67
2023-05-01T06:01:11.670Z,4.90
2023-05-01T06:03:41.697Z,4.53
2023-05-01T06:06:11.834Z,4.47
2023-05-01T06:08:45.352Z,4.57
2023-05-01T06:11:13.359Z,4.27
2023-05-01T06:13:52.694Z,4.70
2023-05-01T06:16:30.014Z,4.60
2023-05-01T06:19:01.266Z,4.53
2023-05-01T06:21:41.232Z,5.60
2023-05-01T06:24:09.188Z,5.77
2023-05-01T06:26:37.211Z,4.40
2023-05-01T06:29:05.378Z,5.10
2023-05-01T06:31:33.748Z,4.43
2023-05-01T06:34:01.759Z,4.80
2023-05-01T06:36:29.791Z,4.80
2023-05-01T06:39:05.607Z,5.07
2023-05-01T06:41:33.710Z,4.43
2023-05-01T06:44:05.142Z,4.80
2023-05-01T06:46:33.248Z,6.07
2023-05-01T06:49:01.776Z,5.73
2023-05-01T06:51:30.313Z,4.20
2023-05-01T06:54:02.294Z,4.78
2023-05-01T06:56:34.766Z,4.47
2023-05-01T06:59:03.431Z,4.47
2023-05-01T07:01:35.441Z,5.82
2023-05-01T07:04:04.047Z,4.95
2023-05-01T07:06:32.555Z,5.00
2023-05-01T07:09:00.596Z,4.32
2023-05-01T07:11:29.936Z,3.83
2023-05-01T07:14:09.269Z,4.50
2023-05-01T07:16:38.472Z,3.85
2023-05-01T07:19:06.481Z,4.80
2023-05-01T07:21:34.561Z,4.45
2023-05-01T07:24:02.594Z,4.75
2023-05-01T07:26:31.839Z,4.78
2023-05-01T07:28:59.898Z,4.90
2023-05-01T07:31:30.550Z,4.75
2023-05-01T07:33:59.589Z,4.45
2023-05-01T07:36:28.245Z,4.90
2023-05-01T07:38:59.003Z,4.60
2023-05-01T07:41:27.099Z,4.38
2023-05-01T07:43:55.150Z,3.80
2023-05-01T07:46:23.334Z,4.45
2023-05-01T07:48:52.705Z,4.75
2023-05-01T07:51:33.762Z,4.45
2023-05-01T07:54:04.405Z,3.88
2023-05-01T07:56:32.864Z,4.25
2023-05-01T07:59:00.905Z,4.68
2023-05-01T08:01:29.092Z,4.10
2023-05-01T08:04:01.702Z,4.20
2023-05-01T08:06:29.755Z,3.95
2023-05-01T08:09:06.987Z,4.20
2023-05-01T08:11:37.127Z,4.32
2023-05-01T08:14:10.299Z,3.65
2023-05-01T08:16:38.743Z,4.60
2023-05-01T08:19:08.166Z,4.25
2023-05-01T08:21:47.285Z,4.75
2023-05-01T08:24:15.484Z,4.20
2023-05-01T08:26:43.608Z,3.80
2023-05-01T08:29:11.743Z,4.00
2023-05-01T08:31:39.894Z,4.05
2023-05-01T08:34:09.770Z,4.05
2023-05-01T08:36:38.300Z,4.00
2023-05-01T08:39:06.415Z,3.63
2023-05-01T08:41:39.626Z,3.42
2023-05-01T08:44:09.533Z,3.50
2023-05-01T08:46:49.932Z,3.80
2023-05-01T08:49:20.761Z,3.60
2023-05-01T08:51:56.985Z,3.50
2023-05-01T08:54:32.127Z,3.80
2023-05-01T08:57:04.596Z,3.53
2023-05-01T08:59:35.054Z,3.88
2023-05-01T09:02:09.796Z,3.60
2023-05-01T09:04:52.200Z,3.90
2023-05-01T09:07:20.311Z,3.95
2023-05-01T09:09:48.281Z,3.25
2023-05-01T09:12:23.034Z,3.40
2023-05-01T09:14:51.723Z,4.13
2023-05-01T09:17:23.484Z,3.70
2023-05-01T09:19:58.537Z,3.13
2023-05-01T09:22:27.213Z,3.10
2023-05-01T09:25:05.498Z,3.20
2023-05-01T09:27:36.144Z,3.10
2023-05-01T09:30:30.239Z,2.92
2023-05-01T09:33:10.942Z,2.80
2023-05-01T09:35:54.831Z,3.25
2023-05-01T09:38:26.174Z,2.70
2023-05-01T09:41:06.352Z,3.15
2023-05-01T09:43:34.728Z,2.95
2023-05-01T09:46:07.824Z,3.40
2023-05-01T09:48:38.908Z,2.97
2023-05-01T09:51:24.129Z,3.20
2023-05-01T09:54:01.908Z,3.20
2023-05-01T09:56:33.897Z,3.03
2023-05-01T09:59:25.209Z,3.00
2023-05-01T10:01:59.594Z,3.30
2023-05-01T10:04:36.552Z,3.25
2023-05-01T10:07:15.518Z,2.65
2023-05-01T10:09:43.564Z,2.85
2023-05-01T10:12:26.188Z,2.88
2023-05-01T10:14:57.826Z,2.83
2023-05-01T10:17:35.322Z,3.30
2023-05-01T10:20:04.284Z,2.20
2023-05-01T10:22:33.817Z,2.78
2023-05-01T10:25:04.701Z,2.92
2023-05-01T10:27:47.351Z,3.08
2023-05-01T10:30:22.246Z,2.63
2023-05-01T10:33:06.347Z,2.42
2023-05-01T10:35:38.238Z,2.33
2023-05-01T10:38:10.930Z,2.50
2023-05-01T10:40:51.690Z,2.30
2023-05-01T10:43:25.905Z,2.65
2023-05-01T10:46:26.977Z,2.42
2023-05-01T10:48:59.410Z,2.60
2023-05-01T10:51:30.462Z,2.55
2023-05-01T10:54:28.157Z,2.30
2023-05-01T10:57:01.276Z,2.45
2023-05-01T11:00:14.328Z,2.83
2023-05-01T11:02:49.425Z,2.65
2023-05-01T11:05:23.611Z,2.20
2023-05-01T11:08:34.801Z,2.80
2023-05-01T11:11:40.396Z,2.35
2023-05-01T11:14:12.364Z,2.60
2023-05-01T11:16:49.113Z,2.13
2023-05-01T11:19:50.446Z,2.00
2023-05-01T11:22:20.915Z,2.67
2023-05-01T11:24:49.967Z,2.60
2023-05-01T11:27:18.362Z,2.40
2023-05-01T11:30:00.336Z,3.03
2023-05-01T11:32:30.489Z,2.78
2023-05-01T11:34:58.969Z,2.83
2023-05-01T11:37:44.258Z,2.70
2023-05-01T11:40:23.078Z,3.10
2023-05-01T11:43:02.453Z,2.28
2023-05-01T11:45:32.765Z,2.55
2023-05-01T11:48:05.554Z,1.92
2023-05-01T11:50:35.541Z,1.88
2023-05-01T11:53:15.694Z,1.75
2023-05-01T11:55:52.609Z,1.65
2023-05-01T11:58:33.884Z,2.00
2023-05-01T12:01:03.632Z,1.70
2023-05-01T12:03:42.676Z,1.90
2023-05-01T12:06:13.362Z,1.58
2023-05-01T12:08:45.873Z,1.73
2023-05-01T12:11:21.391Z,1.60
2023-05-01T12:13:50.273Z,1.88
2023-05-01T12:16:19.914Z,1.70
2023-05-01T12:18:49.253Z,1.35
2023-05-01T12:21:28.384Z,1.40
2023-05-01T12:24:10.236Z,1.17
2023-05-01T12:27:01.812Z,1.13
2023-05-01T12:29:41.708Z,1.27
2023-05-01T12:32:18.828Z,1.02
2023-05-01T12:34:47.018Z,1.17
2023-05-01T12:37:15.080Z,1.20
2023-05-01T12:39:49.540Z,1.10
2023-05-01T12:42:18.624Z,1.35
2023-05-01T12:44:46.754Z,1.27
2023-05-01T12:47:17.312Z,1.08
2023-05-01T12:49:45.402Z,2.38
2023-05-01T12:52:13.588Z,1.10
2023-05-01T12:54:45.586Z,2.80
2023-05-01T12:57:15.606Z,1.50
2023-05-01T12:59:46.033Z,2.25
2023-05-01T13:02:19.035Z,1.50
2023-05-01T13:04:49.229Z,2.03
2023-05-01T13:07:19.528Z,1.38
2023-05-01T13:10:01.521Z,1.45
2023-05-01T13:12:47.594Z,1.50
2023-05-01T13:15:27.994Z,1.10
2023-05-01T13:18:05.365Z,1.50
2023-05-01T13:20:38.898Z,5.32
2023-05-01T13:23:18.583Z,1.70
2023-05-01T13:25:47.571Z,1.52
2023-05-01T13:28:20.096Z,1.98
2023-05-01T13:30:48.054Z,1.73
2023-05-01T13:33:35.805Z,1.90
2023-05-01T13:36:14.296Z,1.40
2023-05-01T13:38:53.863Z,1.60
2023-05-01T13:41:23.396Z,1.33
2023-05-01T13:43:53.567Z,1.42
2023-05-01T13:46:23.366Z,1.40
2023-05-01T13:49:04.594Z,1.45
2023-05-01T13:51:36.547Z,1.50
2023-05-01T13:54:07.188Z,1.70
2023-05-01T13:56:36.223Z,1.52
2023-05-01T13:59:04.777Z,1.40
2023-05-01T14:01:32.805Z,1.48
2023-05-01T14:04:03.682Z,1.40
2023-05-01T14:06:31.935Z,1.55
2023-05-01T14:09:01.139Z,1.35
2023-05-01T14:11:30.716Z,1.42
2023-05-01T14:14:01.056Z,1.50
2023-05-01T14:16:37.654Z,1.30
2023-05-01T14:19:07.247Z,1.40
2023-05-01T14:21:41.636Z,1.30
2023-05-01T14:24:10.174Z,1.50
2023-05-01T14:26:43.139Z,1.52
2023-05-01T14:29:23.847Z,1.38
2023-05-01T14:31:52.673Z,1.50
2023-05-01T14:34:29.154Z,1.58
2023-05-01T14:36:58.401Z,1.50
2023-05-01T14:39:27.455Z,1.42
2023-05-01T14:41:58.219Z,1.25
2023-05-01T14:44:28.381Z,1.55
2023-05-01T14:46:56.583Z,1.40
2023-05-01T14:49:26.800Z,1.25
2023-05-01T14:51:55.276Z,1.35
2023-05-01T14:54:47.340Z,1.40
2023-05-01T14:57:18.826Z,2.00
2023-05-01T14:59:50.943Z,1.38
2023-05-01T15:02:19.226Z,1.08
2023-05-01T15:04:48.966Z,1.52
2023-05-01T15:07:33.368Z,1.38
2023-05-01T15:10:03.559Z,1.42
2023-05-01T15:12:31.559Z,0.90
2023-05-01T15:15:00.914Z,1.17
2023-05-01T15:17:30.508Z,1.17
2023-05-01T15:20:11.851Z,1.23
2023-05-01T15:22:41.032Z,1.20
2023-05-01T15:25:21.602Z,1.40
2023-05-01T15:27:50.383Z,1.50
2023-05-01T15:30:18.583Z,1.38
2023-05-01T15:32:46.720Z,1.58
2023-05-01T15:35:16.644Z,2.30
2023-05-01T15:37:44.721Z,2.22
2023-05-01T15:40:13.107Z,1.92
2023-05-01T15:42:43.002Z,1.85
2023-05-01T15:45:11.869Z,2.53
2023-05-01T15:47:39.906Z,2.50
2023-05-01T15:50:12.069Z,1.92
2023-05-01T15:52:49.511Z,1.90
2023-05-01T15:55:18.617Z,1.95
2023-05-01T15:57:48.538Z,1.80
2023-05-01T16:00:25.416Z,1.52
2023-05-01T16:02:53.528Z,1.73
2023-05-01T16:05:22.321Z,2.00
2023-05-01T16:07:54.530Z,1.52
2023-05-01T16:10:30.605Z,1.58
2023-05-01T16:12:59.140Z,1.60
2023-05-01T16:15:27.136Z,1.50
2023-05-01T16:17:55.348Z,1.25
2023-05-01T16:20:25.151Z,1.65
2023-05-01T16:22:54.622Z,1.50
2023-05-01T16:25:22.842Z,1.42
2023-05-01T16:27:59.734Z,1.27
2023-05-01T16:30:28.202Z,1.77
2023-05-01T16:32:56.316Z,1.60
2023-05-01T16:35:28.267Z,1.65
2023-05-01T16:37:57.838Z,2.30
2023-05-01T16:40:26.008Z,1.90
2023-05-01T16:42:56.460Z,1.90
2023-05-01T16:45:33.760Z,1.83
2023-05-01T16:48:01.979Z,1.83
2023-05-01T16:50:30.432Z,1.95
2023-05-01T16:52:59.908Z,1.77
2023-05-01T16:55:28.070Z,1.92
2023-05-01T16:57:56.122Z,2.20
2023-05-01T17:00:24.396Z,2.10
2023-05-01T17:02:55.118Z,2.10
2023-05-01T17:05:23.255Z,2.78
2023-05-01T17:07:52.053Z,2.10
2023-05-01T17:10:21.449Z,2.50
2023-05-01T17:12:49.432Z,2.10
2023-05-01T17:15:18.259Z,2.03
2023-05-01T17:17:54.354Z,2.38
2023-05-01T17:20:26.476Z,1.83
2023-05-01T17:22:54.673Z,2.30
2023-05-01T17:25:24.089Z,2.33
2023-05-01T17:27:52.223Z,2.72
2023-05-01T17:30:20.377Z,2.50
2023-05-01T17:32:52.962Z,2.53
2023-05-01T17:35:21.170Z,2.53
2023-05-01T17:37:57.552Z,10.48
2023-05-01T17:40:27.417Z,21.02
2023-05-01T17:43:08.618Z,3.40
2023-05-01T17:45:46.937Z,2.72
2023-05-01T17:48:15.033Z,2.67
2023-05-01T17:50:52.169Z,9.18
2023-05-01T17:53:20.161Z,3.85
2023-05-01T17:55:49.506Z,2.85
2023-05-01T17:58:17.524Z,2.33
2023-05-01T18:00:45.646Z,2.47
2023-05-01T18:03:14.081Z,3.58
2023-05-01T18:06:08.252Z,2.55
2023-05-01T18:08:50.018Z,2.10
2023-05-01T18:11:19.767Z,2.47
2023-05-01T18:13:48.268Z,2.60
2023-05-01T18:16:17.288Z,2.40
2023-05-01T18:18:45.626Z,2.70
2023-05-01T18:21:14.559Z,2.92
2023-05-01T18:23:42.549Z,2.17
2023-05-01T18:26:10.584Z,1.90
2023-05-01T18:28:40.077Z,1.73
2023-05-01T18:31:08.104Z,1.83
2023-05-01T18:33:36.254Z,1.60
2023-05-01T18:36:04.549Z,1.70
2023-05-01T18:38:32.812Z,1.40
2023-05-01T18:41:00.817Z,1.80
2023-05-01T18:43:28.769Z,1.80
2023-05-01T18:45:58.656Z,1.60
2023-05-01T18:48:26.701Z,1.70
2023-05-01T18:51:08.375Z,1.47
2023-05-01T18:53:36.881Z,1.80
2023-05-01T18:56:05.954Z,2.17
2023-05-01T18:58:34.046Z,1.80
2023-05-01T19:01:03.546Z,2.08
2023-05-01T19:03:39.516Z,2.20
2023-05-01T19:06:10.348Z,2.07
2023-05-01T19:08:38.437Z,1.83
2023-05-01T19:11:07.053Z,2.60
2023-05-01T19:13:35.469Z,1.83
2023-05-01T19:16:05.196Z,2.10
2023-05-01T19:18:37.533Z,1.97
2023-05-01T19:21:05.860Z,1.53
2023-05-01T19:23:41.303Z,1.80
2023-05-01T19:26:09.633Z,1.97
2023-05-01T19:28:38.531Z,1.80
2023-05-01T19:31:09.198Z,2.30
2023-05-01T19:33:39.988Z,1.93
2023-05-01T19:36:11.349Z,1.97
2023-05-01T19:38:46.461Z,2.00
2023-05-01T19:41:15.426Z,2.10
2023-05-01T19:43:43.444Z,1.90
2023-05-01T19:46:18.308Z,1.98
2023-05-01T19:48:52.483Z,1.90
2023-05-01T19:51:24.420Z,2.07
2023-05-01T19:53:53.953Z,2.20
2023-05-01T19:56:31.940Z,2.10
2023-05-01T19:58:59.979Z,1.67
2023-05-01T20:01:31.573Z,1.80
2023-05-01T20:04:00.861Z,1.57
2023-05-01T20:06:28.903Z,1.57
2023-05-01T20:08:59.878Z,1.87
2023-05-01T20:11:30.015Z,1.83
2023-05-01T20:14:13.412Z,1.73
2023-05-01T20:16:54.141Z,1.80
2023-05-01T20:19:29.276Z,1.70
2023-05-01T20:21:59.900Z,1.53
2023-05-01T20:24:30.088Z,1.70
2023-05-01T20:26:59.327Z,1.70
2023-05-01T20:29:28.151Z,1.70
2023-05-01T20:31:57.786Z,2.13
2023-05-01T20:34:25.987Z,1.70
2023-05-01T20:36:57.952Z,1.60
2023-05-01T20:39:26.387Z,1.60
2023-05-01T20:41:57.307Z,1.47
2023-05-01T20:44:32.158Z,1.40
2023-05-01T20:47:01.659Z,1.43
2023-05-01T20:49:40.237Z,1.65
2023-05-01T20:52:09.346Z,1.20
2023-05-01T20:54:38.378Z,1.20
2023-05-01T20:57:07.446Z,1.50
2023-05-01T20:59:37.766Z,1.50
2023-05-01T21:02:08.243Z,1.50
2023-05-01T21:04:47.771Z,1.60
2023-05-01T21:07:20.283Z,1.20
2023-05-01T21:09:49.678Z,1.47
2023-05-01T21:12:18.700Z,1.42
2023-05-01T21:14:46.703Z,1.58
2023-05-01T21:17:20.091Z,1.60
2023-05-01T21:19:49.445Z,1.60
2023-05-01T21:22:23.975Z,1.90
2023-05-01T21:24:54.712Z,1.55
2023-05-01T21:27:24.231Z,1.60
2023-05-01T21:30:01.605Z,1.60
2023-05-01T21:32:33.284Z,1.63
2023-05-01T21:35:02.683Z,1.80
2023-05-01T21:37:33.018Z,1.38
2023-05-01T21:40:02.503Z,1.63
2023-05-01T21:42:32.650Z,1.77
2023-05-01T21:45:02.012Z,2.00
2023-05-01T21:47:37.745Z,1.40
2023-05-01T21:50:06.974Z,1.50
2023-05-01T21:52:35.323Z,1.63
2023-05-01T21:55:05.449Z,2.15
2023-05-01T21:57:33.475Z,2.17
2023-05-01T22:00:02.271Z,2.07
2023-05-01T22:02:40.436Z,1.63
2023-05-01T22:05:09.107Z,1.90
2023-05-01T22:07:40.002Z,2.00
2023-05-01T22:10:10.439Z,1.50
2023-05-01T22:12:39.585Z,1.50
2023-05-01T22:15:15.431Z,1.70
2023-05-01T22:17:45.840Z,1.75
2023-05-01T22:20:19.914Z,1.63
2023-05-01T22:22:51.337Z,2.03
2023-05-01T22:25:21.541Z,2.00
2023-05-01T22:27:52.514Z,1.90
2023-05-01T22:30:20.602Z,1.50
2023-05-01T22:32:50.311Z,1.90
2023-05-01T22:35:18.592Z,1.83
2023-05-01T22:37:46.545Z,2.10
2023-05-01T22:40:14.599Z,2.20
2023-05-01T22:42:42.678Z,2.20
2023-05-01T22:45:11.428Z,2.30
2023-05-01T22:47:46.537Z,2.10
2023-05-01T22:50:24.098Z,2.40
2023-05-01T22:52:54.221Z,2.50
2023-05-01T22:55:29.325Z,2.47
2023-05-01T22:57:59.397Z,2.60
2023-05-01T23:00:30.990Z,2.60
2023-05-01T23:03:00.741Z,2.53
2023-05-01T23:05:35.370Z,3.00
2023-05-01T23:08:09.419Z,2.53
2023-05-01T23:10:42.556Z,2.40
2023-05-01T23:13:18.875Z,2.80
2023-05-01T23:15:53.273Z,2.70
2023-05-01T23:18:25.407Z,2.63
2023-05-01T23:20:57.991Z,2.80
2023-05-01T23:23:37.391Z,2.57
2023-05-01T23:26:18.903Z,2.77
2023-05-01T23:28:51.282Z,2.67
2023-05-01T23:31:23.720Z,2.50
2023-05-01T23:33:52.335Z,2.67
2023-05-01T23:36:31.936Z,2.70
2023-05-01T23:39:00.073Z,2.80
2023-05-01T23:41:35.934Z,2.57
2023-05-01T23:44:12.979Z,2.23
2023-05-01T23:46:53.081Z,2.50
2023-05-01T23:49:21.186Z,2.07
2023-05-01T23:51:58.922Z,3.00
2023-05-01T23:54:30.098Z,2.83
2023-05-01T23:56:58.143Z,2.50
2023-05-01T23:59:29.063Z,3.07
